createdAt,value
2022-09-17T00:00:04.080Z,35.97
2022-09-17T00:01:17.295Z,29.83
2022-09-17T00:02:19.308Z,31.55
2022-09-17T00:03:23.176Z,31.77
2022-09-17T00:04:25.242Z,37.92
2022-09-17T00:05:28.242Z,31.98
2022-09-17T00:06:31.257Z,37.92
2022-09-17T00:07:35.640Z,30.83
2022-09-17T00:08:39.788Z,36.83
2022-09-17T00:09:43.300Z,27.23
2022-09-17T00:10:45.985Z,32.30
2022-09-17T00:11:48.988Z,29.48
2022-09-17T00:12:51.543Z,32.30
2022-09-17T00:13:55.709Z,34.92
2022-09-17T00:14:57.911Z,39.65
2022-09-17T00:16:01.052Z,31.80
2022-09-17T00:17:04.179Z,30.05
2022-09-17T00:18:06.210Z,40.20
2022-09-17T00:19:14.546Z,38.58
2022-09-17T00:20:16.879Z,24.40
2022-09-17T00:21:21.057Z,36.20
2022-09-17T00:22:23.473Z,32.92
2022-09-17T00:23:27.940Z,33.67
2022-09-17T00:24:30.170Z,33.67
2022-09-17T00:25:33.166Z,25.33
2022-09-17T00:26:36.997Z,33.08
2022-09-17T00:27:39.981Z,27.17
2022-09-17T00:28:45.448Z,27.50
2022-09-17T00:29:49.600Z,26.23
2022-09-17T00:30:51.720Z,36.35
2022-09-17T00:31:54.761Z,31.58
2022-09-17T00:32:57.867Z,31.60
2022-09-17T00:34:01.979Z,29.55
2022-09-17T00:35:04.707Z,25.98
2022-09-17T00:36:08.416Z,24.83
2022-09-17T00:37:10.445Z,32.45
2022-09-17T00:38:13.485Z,28.10
2022-09-17T00:39:18.350Z,25.00
2022-09-17T00:40:20.976Z,27.60
2022-09-17T00:41:26.163Z,28.95
2022-09-17T00:42:28.258Z,29.33
2022-09-17T00:43:37.679Z,25.65
2022-09-17T00:44:46.102Z,34.67
2022-09-17T00:45:49.405Z,29.10
2022-09-17T00:46:51.600Z,26.88
2022-09-17T00:47:59.940Z,30.25
2022-09-17T00:49:06.061Z,23.63
2022-09-17T00:50:11.834Z,29.35
2022-09-17T00:51:16.192Z,27.08
2022-09-17T00:52:23.591Z,34.25
2022-09-17T00:53:25.976Z,26.45
2022-09-17T00:54:30.976Z,33.83
2022-09-17T00:55:37.911Z,34.53
2022-09-17T00:56:43.591Z,30.75
2022-09-17T00:57:47.589Z,38.80
2022-09-17T00:58:50.754Z,30.23
2022-09-17T00:59:53.955Z,31.73
2022-09-17T01:00:56.082Z,27.42
2022-09-17T01:01:59.714Z,30.80
2022-09-17T01:03:01.816Z,24.50
2022-09-17T01:04:05.130Z,27.38
2022-09-17T01:05:08.369Z,35.53
2022-09-17T01:06:17.805Z,27.25
2022-09-17T01:07:35.857Z,29.63
2022-09-17T01:08:48.968Z,30.23
2022-09-17T01:09:58.849Z,31.08
2022-09-17T01:11:21.059Z,27.60
2022-09-17T01:12:41.678Z,28.90
2022-09-17T01:13:57.728Z,29.30
2022-09-17T01:15:10.766Z,27.88
2022-09-17T01:16:20.938Z,29.88
2022-09-17T01:17:33.200Z,29.42
2022-09-17T01:18:48.935Z,27.10
2022-09-17T01:20:33.834Z,24.98
2022-09-17T01:21:50.072Z,22.38
2022-09-17T01:23:06.257Z,25.75
2022-09-17T01:24:34.577Z,30.13
2022-09-17T01:25:50.921Z,24.02
2022-09-17T01:27:22.377Z,24.08
2022-09-17T01:28:38.505Z,24.98
2022-09-17T01:30:04.316Z,28.67
2022-09-17T01:31:30.609Z,29.13
2022-09-17T01:32:40.066Z,23.63
2022-09-17T01:33:48.012Z,25.42
2022-09-17T01:34:59.848Z,26.50
2022-09-17T01:36:14.095Z,25.40
2022-09-17T01:37:26.781Z,20.10
2022-09-17T01:38:40.995Z,22.80
2022-09-17T01:39:49.965Z,19.58
2022-09-17T01:40:59.733Z,28.85
2022-09-17T01:42:14.361Z,36.92
2022-09-17T01:43:25.169Z,26.17
2022-09-17T01:45:39.792Z,28.45
2022-09-17T01:46:46.434Z,31.20
2022-09-17T01:47:53.025Z,28.83
2022-09-17T01:48:59.753Z,27.52
2022-09-17T01:50:06.252Z,27.48
2022-09-17T01:51:11.753Z,32.70
2022-09-17T01:52:16.864Z,27.20
2022-09-17T01:53:23.895Z,25.70
2022-09-17T01:54:31.689Z,30.35
2022-09-17T01:55:37.518Z,20.58
2022-09-17T01:56:45.297Z,22.33
2022-09-17T01:57:53.554Z,28.27
2022-09-17T01:59:02.970Z,24.70
2022-09-17T02:00:08.891Z,23.77
2022-09-17T02:01:19.835Z,24.35
2022-09-17T02:02:30.318Z,30.00
2022-09-17T02:03:38.318Z,24.55
2022-09-17T02:04:45.257Z,25.45
2022-09-17T02:05:53.890Z,29.30
2022-09-17T02:07:00.412Z,26.63
2022-09-17T02:08:07.860Z,22.85
2022-09-17T02:09:16.412Z,23.25
2022-09-17T02:10:23.371Z,34.53
2022-09-17T02:11:26.254Z,31.55
2022-09-17T02:12:34.762Z,19.25
2022-09-17T02:13:44.070Z,25.60
2022-09-17T02:14:51.624Z,21.88
2022-09-17T02:16:00.223Z,23.45
2022-09-17T02:17:11.922Z,25.30
2022-09-17T02:18:23.254Z,24.67
2022-09-17T02:19:29.207Z,26.42
2022-09-17T02:20:38.616Z,33.10
2022-09-17T02:21:48.068Z,27.17
2022-09-17T02:22:56.773Z,24.08
2022-09-17T02:24:14.541Z,21.00
2022-09-17T02:25:24.466Z,24.10
2022-09-17T02:26:29.034Z,21.83
2022-09-17T02:27:41.896Z,26.77
2022-09-17T02:28:51.993Z,26.30
2022-09-17T02:29:54.156Z,19.67
2022-09-17T02:30:57.406Z,26.38
2022-09-17T02:32:00.049Z,26.95
2022-09-17T02:33:06.991Z,25.30
2022-09-17T02:34:11.339Z,28.42
2022-09-17T02:35:15.287Z,30.15
2022-09-17T02:36:18.616Z,24.33
2022-09-17T02:37:22.049Z,23.38
2022-09-17T02:38:26.351Z,22.85
2022-09-17T02:39:29.655Z,25.73
2022-09-17T02:40:40.772Z,18.90
2022-09-17T02:41:52.187Z,28.63
2022-09-17T02:43:11.206Z,25.30
2022-09-17T02:44:24.954Z,33.60
2022-09-17T02:45:39.813Z,31.50
2022-09-17T02:46:58.251Z,28.83
2022-09-17T02:48:25.576Z,24.88
2022-09-17T02:49:51.296Z,21.33
2022-09-17T02:51:13.632Z,22.27
2022-09-17T02:52:22.454Z,30.63
2022-09-17T02:53:36.386Z,24.60
2022-09-17T02:54:43.910Z,24.55
2022-09-17T02:55:57.220Z,26.55
2022-09-17T02:57:11.064Z,26.80
2022-09-17T02:58:25.885Z,27.60
2022-09-17T02:59:37.966Z,28.40
2022-09-17T03:00:41.613Z,25.05
2022-09-17T03:01:47.026Z,23.25
2022-09-17T03:02:52.557Z,23.00
2022-09-17T03:03:56.725Z,22.08
2022-09-17T03:05:02.594Z,20.75
2022-09-17T03:06:05.556Z,26.67
2022-09-17T03:07:09.999Z,19.42
2022-09-17T03:08:14.479Z,20.08
2022-09-17T03:09:17.501Z,22.98
2022-09-17T03:10:20.013Z,32.35
2022-09-17T03:11:23.117Z,23.30
2022-09-17T03:12:25.750Z,21.20
2022-09-17T03:13:28.814Z,20.45
2022-09-17T03:14:30.839Z,23.48
2022-09-17T03:15:34.181Z,26.13
2022-09-17T03:16:36.276Z,24.63
2022-09-17T03:17:39.340Z,26.25
2022-09-17T03:18:41.342Z,21.90
2022-09-17T03:19:44.343Z,19.35
2022-09-17T03:20:47.820Z,26.83
2022-09-17T03:21:50.859Z,21.20
2022-09-17T03:22:52.923Z,21.58
2022-09-17T03:23:56.006Z,23.73
2022-09-17T03:24:58.088Z,27.92
2022-09-17T03:26:01.401Z,22.50
2022-09-17T03:27:03.564Z,25.83
2022-09-17T03:28:06.568Z,15.88
2022-09-17T03:29:08.621Z,20.88
2022-09-17T03:30:11.930Z,20.52
2022-09-17T03:31:14.054Z,21.20
2022-09-17T03:32:17.413Z,17.00
2022-09-17T03:33:20.024Z,21.73
2022-09-17T03:34:23.894Z,21.20
2022-09-17T03:35:26.002Z,21.55
2022-09-17T03:36:30.741Z,24.25
2022-09-17T03:37:33.296Z,23.30
2022-09-17T03:38:38.590Z,25.45
2022-09-17T03:39:40.629Z,17.00
2022-09-17T03:40:43.752Z,27.85
2022-09-17T03:41:45.788Z,22.50
2022-09-17T03:42:48.797Z,14.32
2022-09-17T03:43:50.895Z,23.90
2022-09-17T03:44:53.891Z,19.83
2022-09-17T03:45:55.988Z,18.95
2022-09-17T03:46:59.235Z,19.52
2022-09-17T03:48:01.664Z,25.48
2022-09-17T03:49:04.843Z,20.15
2022-09-17T03:50:07.687Z,14.18
2022-09-17T03:51:10.728Z,17.15
2022-09-17T03:52:14.523Z,22.13
2022-09-17T03:53:17.725Z,15.55
2022-09-17T03:54:20.768Z,17.92
2022-09-17T03:55:22.776Z,18.60
2022-09-17T03:56:26.728Z,20.52
2022-09-17T03:57:29.053Z,23.65
2022-09-17T03:58:32.561Z,19.38
2022-09-17T03:59:34.591Z,15.60
2022-09-17T04:00:37.883Z,16.20
2022-09-17T04:01:40.089Z,21.08
2022-09-17T04:02:43.786Z,16.70
2022-09-17T04:03:45.990Z,18.40
2022-09-17T04:04:49.003Z,20.48
2022-09-17T04:05:51.391Z,18.25
2022-09-17T04:06:54.581Z,13.77
2022-09-17T04:07:58.006Z,15.40
2022-09-17T04:09:01.296Z,14.18
2022-09-17T04:10:04.991Z,17.52
2022-09-17T04:11:08.645Z,15.80
2022-09-17T04:12:10.762Z,17.13
2022-09-17T04:13:14.341Z,15.88
2022-09-17T04:14:16.390Z,20.55
2022-09-17T04:15:19.459Z,17.98
2022-09-17T04:16:21.521Z,15.70
2022-09-17T04:17:24.621Z,16.90
2022-09-17T04:18:26.818Z,18.52
2022-09-17T04:19:29.937Z,19.88
2022-09-17T04:20:31.958Z,18.45
2022-09-17T04:21:35.041Z,16.27
2022-09-17T04:22:37.071Z,23.30
2022-09-17T04:23:41.482Z,25.23
2022-09-17T04:24:43.516Z,22.75
2022-09-17T04:25:46.739Z,16.77
2022-09-17T04:26:48.814Z,13.95
2022-09-17T04:27:51.859Z,24.23
2022-09-17T04:28:53.886Z,20.88
2022-09-17T04:29:56.891Z,21.63
2022-09-17T04:30:59.040Z,23.17
2022-09-17T04:32:02.450Z,22.23
2022-09-17T04:33:04.812Z,17.10
2022-09-17T04:34:07.933Z,21.30
2022-09-17T04:35:09.988Z,20.17
2022-09-17T04:36:13.003Z,19.33
2022-09-17T04:37:15.012Z,18.42
2022-09-17T04:38:20.562Z,25.33
2022-09-17T04:39:23.949Z,22.45
2022-09-17T04:40:28.102Z,16.38
2022-09-17T04:41:30.126Z,27.23
2022-09-17T04:42:33.153Z,20.08
2022-09-17T04:43:35.468Z,23.65
2022-09-17T04:44:38.549Z,16.48
2022-09-17T04:45:40.957Z,18.85
2022-09-17T04:46:44.088Z,20.80
2022-09-17T04:47:46.158Z,18.88
2022-09-17T04:48:49.146Z,24.13
2022-09-17T04:49:51.575Z,23.45
2022-09-17T04:50:54.653Z,21.08
2022-09-17T04:51:56.731Z,20.23
2022-09-17T04:52:59.820Z,18.48
2022-09-17T04:54:01.976Z,19.45
2022-09-17T04:55:07.517Z,16.77
2022-09-17T04:56:09.588Z,21.63
2022-09-17T04:57:12.640Z,21.17
2022-09-17T04:58:14.653Z,25.10
2022-09-17T04:59:17.669Z,17.88
2022-09-17T05:00:21.511Z,21.92
2022-09-17T05:01:24.535Z,24.40
2022-09-17T05:02:26.704Z,19.48
2022-09-17T05:03:29.755Z,18.10
2022-09-17T05:04:31.779Z,18.50
2022-09-17T05:05:34.917Z,18.25
2022-09-17T05:06:36.997Z,25.58
2022-09-17T05:07:40.526Z,17.50
2022-09-17T05:08:42.526Z,25.80
2022-09-17T05:09:45.535Z,24.00
2022-09-17T05:10:50.320Z,21.23
2022-09-17T05:11:53.420Z,21.52
2022-09-17T05:12:56.562Z,23.35
2022-09-17T05:13:59.642Z,23.73
2022-09-17T05:15:01.814Z,20.45
2022-09-17T05:16:04.960Z,20.60
2022-09-17T05:17:07.038Z,19.77
2022-09-17T05:18:10.090Z,17.98
2022-09-17T05:19:12.082Z,24.35
2022-09-17T05:20:16.441Z,17.20
2022-09-17T05:21:18.446Z,17.63
2022-09-17T05:22:21.817Z,20.83
2022-09-17T05:23:23.995Z,18.50
2022-09-17T05:24:27.340Z,18.00
2022-09-17T05:25:29.340Z,17.55
2022-09-17T05:26:33.739Z,17.65
2022-09-17T05:27:36.047Z,16.58
2022-09-17T05:28:39.096Z,15.05
2022-09-17T05:29:41.127Z,18.83
2022-09-17T05:30:44.198Z,22.13
2022-09-17T05:31:46.345Z,19.58
2022-09-17T05:32:49.814Z,21.77
2022-09-17T05:33:51.818Z,22.30
2022-09-17T05:34:55.107Z,21.40
2022-09-17T05:35:58.148Z,22.10
2022-09-17T05:37:00.158Z,18.73
2022-09-17T05:38:04.643Z,21.48
2022-09-17T05:39:06.801Z,16.85
2022-09-17T05:40:10.724Z,25.85
2022-09-17T05:41:13.863Z,20.88
2022-09-17T05:42:17.239Z,15.50
2022-09-17T05:43:20.304Z,20.38
2022-09-17T05:44:23.649Z,22.30
2022-09-17T05:45:26.984Z,29.92
2022-09-17T05:46:29.072Z,19.92
2022-09-17T05:47:32.210Z,15.52
2022-09-17T05:48:34.607Z,22.10
2022-09-17T05:49:37.735Z,20.83
2022-09-17T05:50:40.149Z,20.10
2022-09-17T05:51:43.600Z,17.25
2022-09-17T05:52:45.612Z,15.88
2022-09-17T05:53:48.669Z,20.20
2022-09-17T05:54:50.715Z,19.13
2022-09-17T05:55:57.682Z,20.63
2022-09-17T05:56:59.736Z,22.58
2022-09-17T05:58:11.137Z,20.67
2022-09-17T05:59:13.205Z,20.48
2022-09-17T06:00:16.733Z,19.98
2022-09-17T06:01:18.808Z,23.67
2022-09-17T06:02:21.903Z,23.77
2022-09-17T06:03:24.027Z,22.13
2022-09-17T06:04:29.580Z,26.95
2022-09-17T06:05:33.614Z,14.32
2022-09-17T06:06:37.846Z,21.45
2022-09-17T06:07:40.127Z,15.93
2022-09-17T06:08:43.168Z,20.70
2022-09-17T06:09:45.257Z,21.67
2022-09-17T06:10:48.300Z,18.33
2022-09-17T06:11:50.670Z,17.52
2022-09-17T06:12:57.631Z,19.13
2022-09-17T06:14:01.075Z,20.90
2022-09-17T06:15:04.788Z,19.50
2022-09-17T06:16:06.956Z,16.70
2022-09-17T06:17:10.102Z,21.25
2022-09-17T06:18:12.189Z,16.83
2022-09-17T06:19:15.269Z,20.00
2022-09-17T06:20:17.392Z,18.88
2022-09-17T06:21:22.946Z,19.92
2022-09-17T06:22:25.217Z,20.45
2022-09-17T06:23:29.371Z,20.70
2022-09-17T06:24:31.605Z,17.27
2022-09-17T06:25:35.329Z,13.30
2022-09-17T06:26:37.464Z,16.38
2022-09-17T06:27:40.776Z,18.20
2022-09-17T06:28:43.043Z,18.80
2022-09-17T06:29:47.716Z,17.40
2022-09-17T06:30:52.722Z,18.33
2022-09-17T06:31:55.934Z,16.83
2022-09-17T06:33:00.502Z,19.83
2022-09-17T06:34:05.592Z,20.40
2022-09-17T06:35:08.906Z,23.20
2022-09-17T06:36:14.435Z,19.65
2022-09-17T06:37:17.340Z,14.80
2022-09-17T06:38:20.535Z,15.43
2022-09-17T06:39:22.845Z,15.88
2022-09-17T06:40:26.226Z,14.60
2022-09-17T06:41:28.518Z,19.08
2022-09-17T06:42:31.752Z,19.00
2022-09-17T06:43:34.008Z,17.88
2022-09-17T06:44:37.133Z,14.63
2022-09-17T06:45:40.529Z,10.25
2022-09-17T06:46:44.251Z,17.20
2022-09-17T06:47:46.509Z,19.63
2022-09-17T06:48:49.558Z,14.57
2022-09-17T06:49:51.783Z,15.80
2022-09-17T06:50:55.388Z,14.18
2022-09-17T06:51:57.444Z,11.07
2022-09-17T06:53:00.596Z,9.40
2022-09-17T06:54:02.674Z,16.38
2022-09-17T06:55:06.512Z,12.27
2022-09-17T06:56:09.884Z,12.80
2022-09-17T06:57:14.448Z,10.20
2022-09-17T06:58:16.927Z,10.70
2022-09-17T06:59:20.053Z,12.23
2022-09-17T07:00:22.266Z,6.97
2022-09-17T07:01:26.858Z,11.50
2022-09-17T07:02:29.050Z,7.70
2022-09-17T07:03:33.029Z,10.77
2022-09-17T07:04:36.105Z,8.52
2022-09-17T07:05:38.162Z,8.90
2022-09-17T07:06:41.286Z,7.05
2022-09-17T07:07:43.402Z,10.45
2022-09-17T07:08:47.112Z,9.02
2022-09-17T07:09:49.674Z,10.45
2022-09-17T07:10:52.787Z,12.00
2022-09-17T07:11:54.855Z,9.15
2022-09-17T07:12:57.901Z,8.93
2022-09-17T07:13:59.943Z,8.85
2022-09-17T07:15:03.001Z,10.82
2022-09-17T07:16:06.526Z,7.20
2022-09-17T07:17:11.115Z,7.18
2022-09-17T07:18:13.161Z,14.98
2022-09-17T07:19:16.201Z,10.52
2022-09-17T07:20:18.475Z,6.55
2022-09-17T07:21:21.514Z,13.30
2022-09-17T07:22:24.785Z,9.50
2022-09-17T07:23:29.668Z,6.72
2022-09-17T07:24:33.054Z,10.68
2022-09-17T07:25:36.236Z,8.45
2022-09-17T07:26:39.318Z,9.05
2022-09-17T07:27:41.346Z,9.38
2022-09-17T07:28:45.131Z,5.05
2022-09-17T07:29:47.211Z,6.10
2022-09-17T07:30:50.783Z,7.88
2022-09-17T07:31:53.974Z,10.48
2022-09-17T07:33:01.342Z,6.10
2022-09-17T07:34:04.475Z,6.90
2022-09-17T07:35:07.064Z,10.40
2022-09-17T07:36:12.496Z,10.45
2022-09-17T07:37:14.574Z,9.10
2022-09-17T07:38:17.638Z,10.25
2022-09-17T07:39:20.687Z,12.30
2022-09-17T07:40:22.903Z,8.63
2022-09-17T07:41:26.022Z,9.43
2022-09-17T07:42:28.182Z,8.98
2022-09-17T07:43:33.256Z,10.02
2022-09-17T07:44:35.372Z,9.20
2022-09-17T07:45:38.461Z,8.98
2022-09-17T07:46:40.639Z,10.80
2022-09-17T07:47:44.421Z,8.07
2022-09-17T07:48:48.762Z,11.05
2022-09-17T07:49:51.876Z,8.77
2022-09-17T07:50:53.995Z,11.30
2022-09-17T07:51:57.008Z,9.55
2022-09-17T07:52:59.041Z,12.30
2022-09-17T07:54:02.383Z,5.78
2022-09-17T07:55:05.074Z,11.73
2022-09-17T07:56:11.789Z,12.27
2022-09-17T07:57:14.132Z,9.85
2022-09-17T07:58:17.256Z,11.68
2022-09-17T07:59:21.245Z,12.23
2022-09-17T08:00:23.255Z,11.27
2022-09-17T08:01:27.306Z,8.55
2022-09-17T08:02:29.467Z,14.52
2022-09-17T08:03:32.667Z,10.68
2022-09-17T08:04:36.077Z,13.48
2022-09-17T08:05:39.116Z,10.93
2022-09-17T08:06:41.176Z,12.02
2022-09-17T08:07:44.202Z,12.15
2022-09-17T08:08:46.611Z,9.88
2022-09-17T08:09:49.991Z,14.35
2022-09-17T08:10:52.019Z,17.60
2022-09-17T08:11:56.426Z,10.90
2022-09-17T08:12:59.025Z,9.77
2022-09-17T08:14:02.087Z,19.23
2022-09-17T08:15:04.466Z,12.90
2022-09-17T08:16:09.690Z,12.77
2022-09-17T08:17:11.867Z,12.30
2022-09-17T08:18:17.481Z,9.20
2022-09-17T08:19:20.030Z,8.23
2022-09-17T08:20:26.219Z,11.73
2022-09-17T08:21:28.277Z,11.20
2022-09-17T08:22:31.725Z,11.77
2022-09-17T08:23:35.789Z,11.45
2022-09-17T08:24:38.852Z,12.55
2022-09-17T08:25:40.942Z,13.82
2022-09-17T08:26:43.966Z,16.00
2022-09-17T08:27:47.050Z,11.75
2022-09-17T08:28:50.938Z,13.15
2022-09-17T08:29:54.084Z,13.65
2022-09-17T08:31:00.896Z,13.52
2022-09-17T08:32:04.440Z,13.95
2022-09-17T08:33:06.617Z,16.30
2022-09-17T08:34:10.714Z,11.13
2022-09-17T08:35:12.851Z,15.63
2022-09-17T08:36:19.239Z,12.25
2022-09-17T08:37:21.774Z,12.15
2022-09-17T08:38:25.006Z,8.10
2022-09-17T08:39:27.046Z,24.98
2022-09-17T08:40:31.404Z,10.73
2022-09-17T08:41:48.269Z,13.43
2022-09-17T08:42:56.438Z,16.02
2022-09-17T08:44:10.162Z,11.40
2022-09-17T08:45:14.377Z,6.47
2022-09-17T08:46:17.695Z,9.73
2022-09-17T08:47:27.401Z,8.77
2022-09-17T08:48:37.517Z,12.00
2022-09-17T08:49:47.337Z,12.77
2022-09-17T08:50:50.978Z,12.57
2022-09-17T08:52:10.042Z,6.03
2022-09-17T08:53:42.849Z,4.90
2022-09-17T08:54:51.073Z,6.18
2022-09-17T08:56:00.123Z,11.18
2022-09-17T08:57:17.594Z,8.50
2022-09-17T08:58:49.776Z,5.72
2022-09-17T09:00:00.638Z,7.63
2022-09-17T09:01:12.293Z,4.65
2022-09-17T09:02:27.503Z,7.88
2022-09-17T09:03:42.587Z,6.50
2022-09-17T09:05:13.320Z,8.63
2022-09-17T09:06:16.756Z,9.98
2022-09-17T09:07:27.207Z,5.15
2022-09-17T09:08:36.872Z,6.95
2022-09-17T09:09:46.539Z,4.93
2022-09-17T09:10:55.403Z,4.47
2022-09-17T09:12:04.363Z,5.43
2022-09-17T09:13:07.520Z,10.38
2022-09-17T09:14:18.538Z,8.48
2022-09-17T09:15:36.029Z,6.07
2022-09-17T09:16:41.497Z,5.80
2022-09-17T09:17:46.935Z,6.63
2022-09-17T09:18:53.040Z,5.30
2022-09-17T09:19:56.449Z,3.80
2022-09-17T09:21:09.883Z,6.15
2022-09-17T09:22:31.994Z,4.05
2022-09-17T09:23:47.651Z,6.10
2022-09-17T09:25:00.082Z,2.97
2022-09-17T09:26:17.196Z,3.17
2022-09-17T09:27:27.437Z,4.35
2022-09-17T09:28:47.913Z,3.53
2022-09-17T09:30:02.199Z,2.90
2022-09-17T09:31:20.258Z,4.78
2022-09-17T09:32:36.841Z,8.02
2022-09-17T09:33:47.721Z,3.25
2022-09-17T09:34:52.444Z,2.78
2022-09-17T09:35:54.585Z,5.85
2022-09-17T09:37:07.376Z,7.97
2022-09-17T09:38:23.709Z,4.32
2022-09-17T09:39:41.204Z,5.00
2022-09-17T09:40:50.116Z,4.57
2022-09-17T09:41:56.145Z,8.30
2022-09-17T09:43:03.033Z,3.35
2022-09-17T09:44:09.835Z,3.50
2022-09-17T09:45:16.246Z,2.47
2022-09-17T09:46:33.932Z,3.30
2022-09-17T09:47:52.571Z,3.38
2022-09-17T09:49:07.137Z,2.22
2022-09-17T09:50:25.294Z,2.78
2022-09-17T09:51:35.122Z,2.33
2022-09-17T09:52:53.658Z,2.90
2022-09-17T09:54:14.651Z,3.22
2022-09-17T09:55:53.065Z,2.17
2022-09-17T09:56:57.343Z,2.40
2022-09-17T09:58:06.774Z,4.55
2022-09-17T09:59:08.866Z,4.63
2022-09-17T10:00:30.525Z,4.82
2022-09-17T10:01:38.100Z,3.55
2022-09-17T10:02:42.321Z,3.10
2022-09-17T10:03:46.246Z,5.47
2022-09-17T10:04:53.422Z,4.97
2022-09-17T10:05:58.491Z,3.65
2022-09-17T10:07:06.495Z,4.55
2022-09-17T10:08:16.224Z,3.60
2022-09-17T10:09:22.616Z,3.10
2022-09-17T10:10:24.825Z,3.70
2022-09-17T10:11:30.034Z,7.93
2022-09-17T10:12:32.140Z,4.05
2022-09-17T10:13:36.773Z,5.88
2022-09-17T10:14:39.978Z,6.18
2022-09-17T10:15:43.088Z,5.43
2022-09-17T10:16:45.433Z,5.35
2022-09-17T10:17:48.510Z,5.15
2022-09-17T10:19:10.854Z,3.38
2022-09-17T10:20:22.730Z,7.70
2022-09-17T10:21:35.920Z,6.93
2022-09-17T10:22:39.627Z,4.35
2022-09-17T10:23:45.262Z,6.55
2022-09-17T10:24:49.525Z,7.95
2022-09-17T10:25:55.573Z,7.97
2022-09-17T10:27:03.017Z,7.07
2022-09-17T10:28:24.996Z,6.28
2022-09-17T10:29:28.444Z,7.22
2022-09-17T10:30:31.168Z,9.48
2022-09-17T10:31:48.698Z,5.45
2022-09-17T10:33:16.354Z,9.02
2022-09-17T10:34:26.544Z,9.20
2022-09-17T10:35:29.378Z,7.45
2022-09-17T10:36:41.313Z,6.32
2022-09-17T10:37:46.022Z,5.57
2022-09-17T10:38:49.558Z,5.32
2022-09-17T10:39:53.713Z,6.10
2022-09-17T10:41:10.330Z,8.88
2022-09-17T10:42:15.616Z,8.07
2022-09-17T10:43:22.618Z,6.68
2022-09-17T10:44:30.318Z,7.13
2022-09-17T10:45:32.694Z,7.35
2022-09-17T10:46:36.350Z,4.47
2022-09-17T10:47:41.767Z,5.45
2022-09-17T10:48:47.828Z,5.07
2022-09-17T10:49:56.573Z,4.80
2022-09-17T10:50:59.610Z,4.38
2022-09-17T10:52:15.150Z,6.88
2022-09-17T10:53:18.550Z,4.95
2022-09-17T10:54:42.025Z,4.22
2022-09-17T10:55:50.353Z,4.40
2022-09-17T10:56:58.760Z,5.95
2022-09-17T10:59:47.625Z,5.38
2022-09-17T11:01:03.631Z,7.85
2022-09-17T11:02:37.123Z,5.65
2022-09-17T11:04:04.812Z,5.70
2022-09-17T11:05:24.182Z,10.93
2022-09-17T11:06:43.371Z,7.47
2022-09-17T11:07:54.391Z,6.65
2022-09-17T11:09:10.917Z,7.30
2022-09-17T11:10:21.459Z,6.53
2022-09-17T11:11:40.284Z,7.10
2022-09-17T11:13:02.237Z,6.88
2022-09-17T11:14:15.963Z,7.47
2022-09-17T11:15:44.085Z,4.10
2022-09-17T11:16:57.344Z,6.00
2022-09-17T11:18:19.347Z,5.53
2022-09-17T11:19:32.585Z,6.68
2022-09-17T11:20:53.296Z,6.25
2022-09-17T11:22:07.259Z,7.47
2022-09-17T11:23:28.312Z,6.30
2022-09-17T11:25:12.814Z,7.10
2022-09-17T11:26:31.709Z,5.70
2022-09-17T11:28:07.759Z,5.88
2022-09-17T11:29:31.487Z,7.20
2022-09-17T11:30:50.630Z,5.93
2022-09-17T11:32:04.834Z,6.68
2022-09-17T11:33:29.839Z,6.10
2022-09-17T11:34:36.100Z,6.38
2022-09-17T11:35:47.063Z,5.53
2022-09-17T11:36:57.392Z,6.82
2022-09-17T11:38:06.196Z,5.55
2022-09-17T11:39:14.210Z,6.75
2022-09-17T11:40:23.729Z,5.85
2022-09-17T11:41:31.412Z,8.32
2022-09-17T11:42:41.023Z,6.70
2022-09-17T11:43:47.481Z,9.55
2022-09-17T11:44:55.606Z,6.13
2022-09-17T11:46:06.497Z,6.30
2022-09-17T11:47:15.226Z,8.95
2022-09-17T11:48:21.778Z,8.18
2022-09-17T11:49:30.495Z,11.13
2022-09-17T11:50:38.065Z,6.20
2022-09-17T11:51:44.252Z,6.20
2022-09-17T11:52:58.648Z,10.35
2022-09-17T11:54:06.811Z,12.02
2022-09-17T11:55:29.158Z,10.70
2022-09-17T11:56:40.248Z,9.70
2022-09-17T11:57:45.148Z,8.52
2022-09-17T11:58:53.021Z,9.88
2022-09-17T11:59:59.894Z,8.30
2022-09-17T12:01:08.154Z,6.85
2022-09-17T12:02:18.398Z,7.75
2022-09-17T12:03:30.429Z,8.25
2022-09-17T12:04:54.344Z,5.90
2022-09-17T12:06:08.396Z,8.77
2022-09-17T12:07:35.978Z,6.63
2022-09-17T12:08:46.279Z,7.80
2022-09-17T12:09:57.403Z,8.60
2022-09-17T12:11:10.517Z,9.80
2022-09-17T12:12:45.043Z,8.18
2022-09-17T12:13:46.123Z,9.73
2022-09-17T12:15:00.017Z,7.43
2022-09-17T12:16:11.810Z,5.07
2022-09-17T12:17:23.081Z,8.00
2022-09-17T12:18:39.230Z,8.02
2022-09-17T12:19:46.474Z,11.88
2022-09-17T12:20:53.902Z,9.00
2022-09-17T12:22:00.944Z,10.07
2022-09-17T12:23:11.273Z,8.80
2022-09-17T12:24:21.827Z,8.20
2022-09-17T12:25:26.913Z,13.48
2022-09-17T12:26:48.484Z,9.75
2022-09-17T12:28:06.001Z,10.70
2022-09-17T12:29:38.330Z,10.90
2022-09-17T12:30:53.325Z,9.00
2022-09-17T12:32:03.383Z,10.18
2022-09-17T12:33:21.669Z,7.20
2022-09-17T12:34:40.912Z,12.27
2022-09-17T12:36:10.486Z,7.75
2022-09-17T12:37:19.756Z,9.18
2022-09-17T12:38:43.285Z,9.48
2022-09-17T12:40:22.115Z,8.93
2022-09-17T12:41:31.759Z,10.35
2022-09-17T12:43:08.381Z,9.23
2022-09-17T12:44:30.500Z,7.68
2022-09-17T12:45:51.025Z,8.20
2022-09-17T12:47:11.525Z,11.02
2022-09-17T12:48:54.898Z,11.85
2022-09-17T12:50:11.491Z,8.73
2022-09-17T12:51:32.739Z,9.55
2022-09-17T12:52:49.758Z,15.07
2022-09-17T12:54:05.843Z,11.23
2022-09-17T12:55:31.273Z,9.32
2022-09-17T12:56:57.188Z,9.32
2022-09-17T12:58:16.107Z,11.23
2022-09-17T12:59:20.767Z,9.73
2022-09-17T13:00:24.116Z,12.02
2022-09-17T13:01:31.759Z,10.57
2022-09-17T13:02:39.814Z,8.13
2022-09-17T13:03:47.142Z,9.77
2022-09-17T13:05:06.646Z,10.98
2022-09-17T13:06:38.085Z,10.93
2022-09-17T13:07:59.589Z,13.30
2022-09-17T13:09:20.134Z,13.43
2022-09-17T13:10:52.471Z,12.45
2022-09-17T13:12:25.570Z,13.82
2022-09-17T13:13:49.267Z,12.55
2022-09-17T13:15:03.490Z,9.18
2022-09-17T13:16:17.071Z,10.70
2022-09-17T13:17:27.715Z,13.73
2022-09-17T13:18:41.407Z,10.20
2022-09-17T13:19:52.896Z,8.75
2022-09-17T13:21:03.186Z,11.50
2022-09-17T13:22:07.281Z,12.57
2022-09-17T13:23:12.815Z,10.13
2022-09-17T13:24:17.058Z,10.23
2022-09-17T13:25:22.642Z,9.13
2022-09-17T13:26:37.880Z,7.80
2022-09-17T13:27:43.164Z,11.48
2022-09-17T13:28:49.279Z,8.60
2022-09-17T13:30:02.286Z,10.88
2022-09-17T13:31:06.188Z,14.68
2022-09-17T13:32:09.626Z,12.95
2022-09-17T13:33:11.644Z,8.45
2022-09-17T13:34:31.546Z,5.93
2022-09-17T13:35:50.066Z,5.93
2022-09-17T13:36:53.939Z,8.63
2022-09-17T13:37:57.920Z,7.35
2022-09-17T13:39:02.133Z,6.68
2022-09-17T13:40:07.493Z,12.55
2022-09-17T13:41:21.816Z,7.72
2022-09-17T13:42:28.908Z,12.90
2022-09-17T13:43:32.212Z,11.80
2022-09-17T13:44:40.109Z,10.05
2022-09-17T13:46:17.818Z,9.27
2022-09-17T13:47:27.976Z,7.97
2022-09-17T13:48:32.493Z,6.30
2022-09-17T13:49:35.678Z,7.72
2022-09-17T13:50:39.466Z,7.35
2022-09-17T13:52:12.202Z,6.25
2022-09-17T13:53:21.960Z,9.23
2022-09-17T13:54:39.017Z,9.80
2022-09-17T13:55:43.902Z,9.40
2022-09-17T13:56:49.722Z,5.63
2022-09-17T13:57:52.978Z,10.75
2022-09-17T13:58:55.159Z,5.28
2022-09-17T14:00:02.037Z,8.85
2022-09-17T14:01:14.711Z,8.00
2022-09-17T14:02:36.597Z,8.70
2022-09-17T14:03:53.863Z,6.60
2022-09-17T14:04:58.018Z,5.43
2022-09-17T14:06:36.613Z,7.57
2022-09-17T14:07:51.128Z,6.15
2022-09-17T14:08:56.340Z,5.70
2022-09-17T14:10:00.866Z,3.80
2022-09-17T14:11:37.829Z,3.75
2022-09-17T14:12:59.801Z,1.50
2022-09-17T14:14:47.565Z,2.50
2022-09-17T14:16:02.209Z,3.15
2022-09-17T14:17:05.438Z,2.63
2022-09-17T14:18:58.891Z,2.42
2022-09-17T14:20:03.985Z,2.83
2022-09-17T14:21:14.863Z,2.60
2022-09-17T14:22:22.974Z,1.48
2022-09-17T14:23:25.074Z,1.75
2022-09-17T14:24:36.379Z,5.60
2022-09-17T14:25:45.233Z,2.13
2022-09-17T14:27:04.909Z,4.72
2022-09-17T14:28:16.183Z,3.13
2022-09-17T14:29:41.049Z,3.67
2022-09-17T14:30:45.198Z,2.33
2022-09-17T14:31:48.976Z,2.17
2022-09-17T14:33:00.326Z,2.58
2022-09-17T14:34:04.947Z,2.38
2022-09-17T14:35:20.439Z,2.25
2022-09-17T14:36:24.995Z,3.53
2022-09-17T14:37:28.390Z,3.13
2022-09-17T14:38:39.444Z,4.32
2022-09-17T14:39:44.088Z,3.28
2022-09-17T14:40:50.219Z,3.47
2022-09-17T14:41:54.678Z,4.78
2022-09-17T14:42:59.542Z,5.95
2022-09-17T14:44:06.691Z,4.53
2022-09-17T14:45:17.561Z,4.35
2022-09-17T14:46:23.457Z,4.93
2022-09-17T14:47:27.370Z,3.55
2022-09-17T14:48:37.013Z,6.22